createdAt,value
2023-03-15T00:01:08.574Z,7.35
2023-03-15T00:03:36.610Z,6.25
2023-03-15T00:06:04.959Z,7.25
2023-03-15T00:08:32.915Z,2.22
2023-03-15T00:11:00.782Z,4.80
2023-03-15T00:13:28.313Z,6.85
2023-03-15T00:15:59.009Z,4.28
2023-03-15T00:18:27.037Z,5.00
2023-03-15T00:20:54.496Z,4.25
2023-03-15T00:23:22.206Z,1.77
2023-03-15T00:25:51.754Z,5.53
2023-03-15T00:28:19.522Z,1.95
2023-03-15T00:30:46.918Z,4.05
2023-03-15T00:33:16.339Z,7.10
2023-03-15T00:35:45.266Z,3.05
2023-03-15T00:38:13.762Z,6.82
2023-03-15T00:40:42.413Z,5.63
2023-03-15T00:43:09.831Z,3.80
2023-03-15T00:45:37.064Z,2.35
2023-03-15T00:48:04.815Z,5.57
2023-03-15T00:50:32.107Z,4.85
2023-03-15T00:52:59.340Z,3.45
2023-03-15T00:55:28.908Z,3.63
2023-03-15T00:57:56.925Z,4.10
2023-03-15T01:00:24.606Z,2.63
2023-03-15T01:02:53.470Z,4.05
2023-03-15T01:05:21.939Z,7.13
2023-03-15T01:07:49.579Z,5.15
2023-03-15T01:10:17.635Z,6.38
2023-03-15T01:12:45.885Z,2.13
2023-03-15T01:15:15.159Z,2.88
2023-03-15T01:17:43.366Z,5.45
2023-03-15T01:20:15.056Z,3.92
2023-03-15T01:22:43.385Z,5.05
2023-03-15T01:25:10.557Z,5.88
2023-03-15T01:27:37.988Z,2.83
2023-03-15T01:30:06.803Z,4.03
2023-03-15T01:32:34.370Z,2.53
2023-03-15T01:35:02.235Z,3.38
2023-03-15T01:37:29.558Z,5.32
2023-03-15T01:39:57.154Z,1.80
2023-03-15T01:42:24.433Z,1.80
2023-03-15T01:44:59.535Z,5.88
2023-03-15T01:47:27.655Z,1.85
2023-03-15T01:50:09.702Z,3.63
2023-03-15T01:52:40.222Z,3.13
2023-03-15T01:55:18.881Z,5.03
2023-03-15T01:58:06.414Z,10.20
2023-03-15T02:00:36.243Z,5.85
2023-03-15T02:03:22.602Z,5.05
2023-03-15T02:06:04.588Z,7.65
2023-03-15T02:08:43.356Z,4.22
2023-03-15T02:11:12.788Z,8.60
2023-03-15T02:13:41.651Z,4.57
2023-03-15T02:16:10.406Z,5.57
2023-03-15T02:18:46.603Z,4.28
2023-03-15T02:21:51.108Z,2.25
2023-03-15T02:24:34.080Z,4.13
2023-03-15T02:27:01.414Z,3.42
2023-03-15T02:29:29.265Z,2.85
2023-03-15T02:31:57.792Z,7.18
2023-03-15T02:34:26.390Z,3.58
2023-03-15T02:36:54.738Z,3.30
2023-03-15T02:39:23.166Z,6.05
2023-03-15T02:41:57.351Z,8.43
2023-03-15T02:44:36.635Z,5.47
2023-03-15T02:47:24.516Z,5.53
2023-03-15T02:49:53.333Z,14.38
2023-03-15T02:52:22.352Z,10.23
2023-03-15T02:54:50.202Z,7.55
2023-03-15T02:57:19.123Z,2.85
2023-03-15T02:59:50.191Z,7.97
2023-03-15T03:02:18.766Z,4.80
2023-03-15T03:04:46.113Z,2.33
2023-03-15T03:07:13.720Z,6.43
2023-03-15T03:09:50.998Z,5.78
2023-03-15T03:12:20.194Z,5.82
2023-03-15T03:14:48.397Z,6.00
2023-03-15T03:17:18.720Z,4.72
2023-03-15T03:19:46.596Z,3.38
2023-03-15T03:22:16.344Z,5.78
2023-03-15T03:24:45.288Z,11.57
2023-03-15T03:27:15.611Z,5.60
2023-03-15T03:29:45.272Z,10.20
2023-03-15T03:32:12.785Z,7.75
2023-03-15T03:34:40.030Z,6.30
2023-03-15T03:37:08.021Z,6.63
2023-03-15T03:40:05.928Z,6.57
2023-03-15T03:42:33.928Z,6.93
2023-03-15T03:45:02.103Z,5.25
2023-03-15T03:47:37.146Z,21.65
2023-03-15T03:50:04.965Z,9.05
2023-03-15T03:52:32.175Z,7.30
2023-03-15T03:55:07.900Z,7.80
2023-03-15T03:57:35.168Z,11.07
2023-03-15T04:00:06.405Z,14.15
2023-03-15T04:02:45.129Z,8.65
2023-03-15T04:05:15.984Z,12.57
2023-03-15T04:07:43.735Z,8.33
2023-03-15T04:10:15.534Z,9.77
2023-03-15T04:12:46.526Z,11.95
2023-03-15T04:15:15.027Z,11.95
2023-03-15T04:17:42.627Z,7.85
2023-03-15T04:20:12.372Z,11.57
2023-03-15T04:22:48.910Z,16.05
2023-03-15T04:25:41.549Z,14.65
2023-03-15T04:28:37.643Z,12.35
2023-03-15T04:31:26.685Z,10.67
2023-03-15T04:34:27.710Z,18.77
2023-03-15T04:37:14.368Z,11.45
2023-03-15T04:40:00.793Z,6.85
2023-03-15T04:42:56.790Z,10.50
2023-03-15T04:45:35.460Z,17.30
2023-03-15T04:48:25.330Z,16.63
2023-03-15T04:51:06.255Z,10.30
2023-03-15T04:53:39.429Z,7.85
2023-03-15T04:56:29.656Z,7.25
2023-03-15T04:59:17.032Z,15.93
2023-03-15T05:02:13.168Z,9.57
2023-03-15T05:04:57.287Z,7.07
2023-03-15T05:07:53.885Z,10.95
2023-03-15T05:10:39.920Z,9.85
2023-03-15T05:13:24.099Z,10.23
2023-03-15T05:16:31.341Z,3.53
2023-03-15T05:19:13.783Z,9.25
2023-03-15T05:22:01.921Z,8.10
2023-03-15T05:24:55.644Z,9.93
2023-03-15T05:27:56.265Z,5.05
2023-03-15T05:30:42.088Z,4.35
2023-03-15T05:33:32.444Z,7.03
2023-03-15T05:36:25.567Z,5.57
2023-03-15T05:39:19.468Z,6.65
2023-03-15T05:41:55.474Z,9.93
2023-03-15T05:44:40.715Z,5.45
2023-03-15T05:47:23.784Z,7.40
2023-03-15T05:50:10.975Z,6.85
2023-03-15T05:53:15.403Z,11.50
2023-03-15T05:56:01.469Z,12.95
2023-03-15T05:58:55.962Z,8.07
2023-03-15T06:01:35.612Z,9.43
2023-03-15T06:04:11.634Z,7.88
2023-03-15T06:06:40.153Z,11.07
2023-03-15T06:09:09.684Z,3.90
2023-03-15T06:11:37.032Z,6.10
2023-03-15T06:14:04.645Z,4.00
2023-03-15T06:16:47.303Z,5.80
2023-03-15T06:19:14.823Z,11.68
2023-03-15T06:21:42.069Z,9.43
2023-03-15T06:24:15.313Z,3.83
2023-03-15T06:26:42.937Z,11.23
2023-03-15T06:29:10.224Z,8.50
2023-03-15T06:31:38.139Z,3.30
2023-03-15T06:34:09.260Z,10.55
2023-03-15T06:36:36.526Z,16.80
2023-03-15T06:39:05.166Z,10.88
2023-03-15T06:41:32.615Z,6.68
2023-03-15T06:44:09.981Z,5.38
2023-03-15T06:46:39.210Z,3.83
2023-03-15T06:49:07.122Z,5.57
2023-03-15T06:51:34.545Z,5.75
2023-03-15T06:54:01.873Z,6.07
2023-03-15T06:56:31.009Z,5.43
2023-03-15T06:58:58.593Z,8.13
2023-03-15T07:01:26.240Z,9.43
2023-03-15T07:03:53.449Z,6.93
2023-03-15T07:06:20.603Z,7.60
2023-03-15T07:08:47.824Z,5.10
2023-03-15T07:11:15.041Z,4.97
2023-03-15T07:13:43.248Z,9.50
2023-03-15T07:16:10.511Z,3.50
2023-03-15T07:18:37.840Z,5.57
2023-03-15T07:21:07.538Z,6.75
2023-03-15T07:23:34.948Z,4.00
2023-03-15T07:26:02.729Z,5.82
2023-03-15T07:28:30.012Z,7.75
2023-03-15T07:31:01.263Z,2.67
2023-03-15T07:33:31.559Z,10.45
2023-03-15T07:35:59.580Z,3.20
2023-03-15T07:38:30.761Z,6.75
2023-03-15T07:41:01.503Z,6.68
2023-03-15T07:43:28.841Z,6.95
2023-03-15T07:46:08.549Z,3.85
2023-03-15T07:48:35.783Z,4.45
2023-03-15T07:51:03.306Z,3.42
2023-03-15T07:53:30.727Z,2.80
2023-03-15T07:55:58.001Z,3.42
2023-03-15T07:58:25.538Z,5.88
2023-03-15T08:00:55.897Z,3.92
2023-03-15T08:03:26.219Z,4.28
2023-03-15T08:05:54.238Z,8.63
2023-03-15T08:08:21.779Z,4.30
2023-03-15T08:10:49.084Z,5.90
2023-03-15T08:13:16.280Z,7.47
2023-03-15T08:15:46.767Z,4.28
2023-03-15T08:18:14.444Z,6.47
2023-03-15T08:20:41.739Z,14.13
2023-03-15T08:23:09.295Z,7.38
2023-03-15T08:25:40.166Z,10.95
2023-03-15T08:28:07.598Z,3.92
2023-03-15T08:30:35.151Z,7.45
2023-03-15T08:33:03.241Z,6.70
2023-03-15T08:35:32.446Z,4.13
2023-03-15T08:38:02.072Z,8.38
2023-03-15T08:40:30.588Z,6.43
2023-03-15T08:42:59.220Z,3.43
2023-03-15T08:45:26.915Z,7.22
2023-03-15T08:47:56.318Z,3.72
2023-03-15T08:50:25.176Z,5.60
2023-03-15T08:52:52.708Z,4.35
2023-03-15T08:55:20.704Z,3.20
2023-03-15T08:57:48.050Z,3.22
2023-03-15T09:00:19.914Z,4.65
2023-03-15T09:02:48.802Z,4.88
2023-03-15T09:05:16.920Z,2.75
2023-03-15T09:07:45.310Z,3.95
2023-03-15T09:10:17.502Z,3.47
2023-03-15T09:12:51.543Z,13.52
2023-03-15T09:15:19.117Z,2.28
2023-03-15T09:17:48.039Z,2.33
2023-03-15T09:20:15.976Z,5.45
2023-03-15T09:22:49.537Z,3.55
2023-03-15T09:25:17.014Z,6.13
2023-03-15T09:27:44.367Z,11.13
2023-03-15T09:30:12.976Z,3.28
2023-03-15T09:32:40.986Z,4.57
2023-03-15T09:35:12.693Z,4.18
2023-03-15T09:37:41.957Z,5.90
2023-03-15T09:43:39.165Z,5.18
2023-03-15T09:46:31.298Z,6.28
2023-03-15T09:49:26.582Z,1.98
2023-03-15T09:52:32.539Z,2.38
2023-03-15T09:55:28.303Z,2.22
2023-03-15T09:58:24.033Z,3.80
2023-03-15T10:00:56.514Z,4.35
2023-03-15T10:03:29.150Z,4.13
2023-03-15T10:06:01.922Z,3.28
2023-03-15T10:08:29.625Z,3.55
2023-03-15T10:11:17.917Z,3.35
2023-03-15T10:14:21.841Z,2.20
2023-03-15T10:16:51.532Z,9.40
2023-03-15T10:19:47.911Z,3.47
2023-03-15T10:22:20.845Z,6.43
2023-03-15T10:25:25.670Z,3.53
2023-03-15T10:28:21.559Z,4.07
2023-03-15T10:30:51.462Z,4.43
2023-03-15T10:33:39.812Z,3.95
2023-03-15T10:36:24.421Z,7.18
2023-03-15T10:38:52.906Z,2.53
2023-03-15T10:41:40.124Z,5.75
2023-03-15T10:44:29.886Z,5.75
2023-03-15T10:47:21.560Z,3.55
2023-03-15T10:49:58.840Z,3.83
2023-03-15T10:52:36.743Z,7.07
2023-03-15T10:55:21.236Z,3.45
2023-03-15T10:58:39.314Z,2.30
2023-03-15T11:01:13.467Z,2.73
2023-03-15T11:03:43.391Z,5.05
2023-03-15T11:06:26.572Z,4.82
2023-03-15T11:09:06.526Z,2.40
2023-03-15T11:12:00.281Z,1.65
2023-03-15T11:14:41.683Z,2.17
2023-03-15T11:17:17.618Z,2.72
2023-03-15T11:20:18.974Z,3.30
2023-03-15T11:22:46.332Z,2.25
2023-03-15T11:25:17.689Z,5.40
2023-03-15T11:27:50.491Z,3.10
2023-03-15T11:30:20.982Z,15.65
2023-03-15T11:32:48.871Z,3.40
2023-03-15T11:35:23.871Z,20.20
2023-03-15T11:38:06.265Z,7.88
2023-03-15T11:40:42.789Z,1.45
2023-03-15T11:43:45.089Z,3.42
2023-03-15T11:46:52.403Z,3.90
2023-03-15T11:49:49.852Z,5.03
2023-03-15T11:52:20.373Z,9.15
2023-03-15T11:54:48.083Z,1.92
2023-03-15T11:57:46.019Z,3.45
2023-03-15T12:00:33.872Z,3.30
2023-03-15T12:03:27.807Z,2.55
2023-03-15T12:06:34.200Z,3.65
2023-03-15T12:09:02.133Z,14.93
2023-03-15T12:11:29.409Z,4.30
2023-03-15T12:13:59.499Z,2.92
2023-03-15T12:16:37.386Z,3.40
2023-03-15T12:19:20.420Z,7.63
2023-03-15T12:21:55.531Z,9.73
2023-03-15T12:24:28.521Z,0.98
2023-03-15T12:27:31.424Z,4.03
2023-03-15T12:30:01.430Z,9.18
2023-03-15T12:32:30.714Z,8.73
2023-03-15T12:35:23.801Z,6.40
2023-03-15T12:37:53.116Z,4.97
2023-03-15T12:40:24.517Z,4.38
2023-03-15T12:42:56.955Z,2.65
2023-03-15T12:45:27.191Z,8.40
2023-03-15T12:47:54.332Z,11.15
2023-03-15T12:50:43.461Z,17.90
2023-03-15T12:56:36.926Z,3.78
2023-03-15T12:59:44.299Z,8.38
2023-03-15T13:02:43.790Z,5.43
2023-03-15T13:05:25.270Z,8.73
2023-03-15T13:08:07.903Z,14.68
2023-03-15T13:10:50.028Z,4.63
2023-03-15T13:13:46.195Z,5.38
2023-03-15T13:16:44.006Z,4.70
2023-03-15T13:19:42.528Z,15.45
2023-03-15T13:22:35.974Z,4.47
2023-03-15T13:25:20.928Z,4.57
2023-03-15T13:27:58.134Z,7.15
2023-03-15T13:30:41.701Z,3.80
2023-03-15T13:33:20.436Z,4.28
2023-03-15T13:36:16.495Z,10.02
2023-03-15T13:38:49.106Z,10.38
2023-03-15T13:41:23.786Z,12.85
2023-03-15T13:43:57.514Z,5.20
2023-03-15T13:46:28.635Z,3.08
2023-03-15T13:48:56.580Z,3.67
2023-03-15T13:51:29.469Z,20.30
2023-03-15T13:54:25.939Z,6.45
2023-03-15T13:57:05.712Z,7.60
2023-03-15T13:59:55.920Z,9.93
2023-03-15T14:02:32.524Z,21.20
2023-03-15T14:05:06.106Z,10.95
2023-03-15T14:07:49.235Z,8.88
2023-03-15T14:10:19.058Z,7.28
2023-03-15T14:12:46.545Z,4.18
2023-03-15T14:15:24.777Z,7.53
2023-03-15T14:18:19.925Z,8.95
2023-03-15T14:21:04.318Z,18.88
2023-03-15T14:23:34.688Z,10.38
2023-03-15T14:26:08.784Z,19.17
2023-03-15T14:28:36.290Z,16.20
2023-03-15T14:31:03.743Z,11.88
2023-03-15T14:33:41.719Z,19.50
2023-03-15T14:36:43.456Z,20.67
2023-03-15T14:39:24.121Z,20.98
2023-03-15T14:41:51.555Z,22.85
2023-03-15T14:44:18.897Z,11.68
2023-03-15T14:46:46.635Z,16.90
2023-03-15T14:49:24.584Z,12.48
2023-03-15T14:52:00.418Z,10.07
2023-03-15T14:54:29.809Z,12.15
2023-03-15T14:59:24.185Z,26.33
2023-03-15T15:01:59.163Z,16.60
2023-03-15T15:04:33.429Z,14.10
2023-03-15T15:07:02.521Z,29.05
2023-03-15T15:09:31.072Z,15.15
2023-03-15T15:11:58.307Z,16.58
2023-03-15T15:14:25.787Z,17.65
2023-03-15T15:16:53.192Z,19.92
2023-03-15T15:19:20.807Z,16.25
2023-03-15T15:21:48.062Z,19.45
2023-03-15T15:24:26.182Z,15.38
2023-03-15T15:26:53.626Z,37.28
2023-03-15T15:29:20.843Z,17.42
2023-03-15T15:31:48.111Z,42.08
2023-03-15T15:34:15.576Z,68.32
2023-03-15T15:36:43.704Z,13.80
2023-03-15T15:39:28.783Z,17.02
2023-03-15T15:41:56.025Z,18.92
2023-03-15T15:44:25.420Z,63.63
2023-03-15T15:49:20.512Z,47.28
2023-03-15T15:51:49.062Z,29.23
2023-03-15T15:54:36.116Z,29.30
2023-03-15T15:57:04.914Z,10.35
2023-03-15T15:59:32.337Z,34.08
2023-03-15T16:02:01.637Z,17.33
2023-03-15T16:04:30.273Z,34.10
2023-03-15T16:07:02.362Z,27.30
2023-03-15T16:09:35.213Z,20.55
2023-03-15T16:12:10.285Z,26.08
2023-03-15T16:14:37.534Z,34.95
2023-03-15T16:17:16.350Z,20.27
2023-03-15T16:19:43.786Z,22.20
2023-03-15T16:22:11.248Z,23.60
2023-03-15T16:24:43.429Z,17.63
2023-03-15T16:27:16.808Z,17.27
2023-03-15T16:29:49.458Z,21.30
2023-03-15T16:32:36.844Z,22.70
2023-03-15T16:35:16.184Z,15.70
2023-03-15T16:37:45.403Z,21.98
2023-03-15T16:40:25.033Z,16.92
2023-03-15T16:42:53.086Z,15.95
2023-03-15T16:45:21.145Z,20.63
2023-03-15T16:47:48.828Z,15.60
2023-03-15T16:50:17.047Z,43.38
2023-03-15T16:52:47.648Z,23.98
2023-03-15T16:55:23.764Z,18.02
2023-03-15T16:57:50.978Z,18.27
2023-03-15T17:00:19.653Z,16.88
2023-03-15T17:02:49.707Z,21.45
2023-03-15T17:05:19.456Z,11.23
2023-03-15T17:07:52.734Z,24.52
2023-03-15T17:10:22.570Z,25.25
2023-03-15T17:12:51.902Z,13.68
2023-03-15T17:17:49.241Z,29.85
2023-03-15T17:20:27.780Z,99.78
2023-03-15T17:23:04.741Z,83.23
2023-03-15T17:25:33.768Z,36.20
2023-03-15T17:28:01.143Z,31.13
2023-03-15T17:30:36.862Z,23.50
2023-03-15T17:33:05.306Z,16.70
2023-03-15T17:35:38.148Z,33.80
2023-03-15T17:38:12.371Z,15.95
2023-03-15T17:40:40.948Z,27.98
2023-03-15T17:43:14.269Z,16.45
2023-03-15T17:45:42.991Z,42.97
2023-03-15T17:48:10.524Z,16.60
2023-03-15T17:50:38.858Z,37.30
2023-03-15T17:53:17.827Z,21.70
2023-03-15T17:55:47.273Z,13.15
2023-03-15T17:58:25.885Z,15.48
2023-03-15T18:00:54.355Z,25.98
2023-03-15T18:03:23.316Z,23.67
2023-03-15T18:05:51.050Z,24.17
2023-03-15T18:08:20.805Z,26.88
2023-03-15T18:10:49.406Z,26.25
2023-03-15T18:13:20.889Z,25.40
2023-03-15T18:15:49.199Z,26.25
2023-03-15T18:18:16.840Z,37.10
2023-03-15T18:20:48.883Z,24.23
2023-03-15T18:23:17.474Z,20.73
2023-03-15T18:25:45.124Z,30.17
2023-03-15T18:28:12.550Z,20.30
2023-03-15T18:30:40.211Z,22.55
2023-03-15T18:33:07.634Z,55.97
2023-03-15T18:35:37.239Z,76.53
2023-03-15T18:38:05.540Z,32.67
2023-03-15T18:40:34.010Z,21.83
2023-03-15T18:43:03.546Z,20.47
2023-03-15T18:45:35.690Z,18.75
2023-03-15T18:48:04.045Z,21.65
2023-03-15T18:50:33.194Z,32.50
2023-03-15T18:53:01.434Z,36.75
2023-03-15T18:55:29.090Z,34.03
2023-03-15T18:57:56.557Z,22.17
2023-03-15T19:00:28.747Z,19.70
2023-03-15T19:02:59.203Z,19.02
2023-03-15T19:05:29.779Z,25.60
2023-03-15T19:07:57.114Z,22.15
2023-03-15T19:10:25.334Z,17.15
2023-03-15T19:12:54.367Z,24.58
2023-03-15T19:15:23.547Z,13.80
2023-03-15T19:17:53.856Z,18.38
2023-03-15T19:20:22.732Z,17.60
2023-03-15T19:22:52.711Z,20.02
2023-03-15T19:25:20.894Z,15.27
2023-03-15T19:27:48.350Z,17.40
2023-03-15T19:30:20.423Z,16.80
2023-03-15T19:32:49.381Z,17.77
2023-03-15T19:35:18.757Z,18.67
2023-03-15T19:40:16.075Z,16.38
2023-03-15T19:42:43.784Z,21.25
2023-03-15T19:45:12.205Z,26.30
2023-03-15T19:47:39.971Z,18.37
2023-03-15T19:50:10.675Z,32.67
2023-03-15T19:52:45.059Z,30.23
2023-03-15T19:55:21.410Z,25.80
2023-03-15T19:57:48.741Z,23.48
2023-03-15T20:00:18.010Z,23.17
2023-03-15T20:05:17.095Z,30.33
2023-03-15T20:07:45.616Z,28.60
2023-03-15T20:10:13.860Z,23.67
2023-03-15T20:12:42.050Z,15.93
2023-03-15T20:15:11.649Z,19.70
2023-03-15T20:17:40.288Z,27.52
2023-03-15T20:20:09.898Z,20.95
2023-03-15T20:22:40.913Z,22.77
2023-03-15T20:25:17.525Z,24.20
2023-03-15T20:27:45.555Z,37.17
2023-03-15T20:30:15.803Z,32.80
2023-03-15T20:32:43.490Z,18.25
2023-03-15T20:35:11.488Z,25.10
2023-03-15T20:37:41.811Z,17.73
2023-03-15T20:40:16.558Z,20.40
2023-03-15T20:42:44.256Z,21.50
2023-03-15T20:45:13.368Z,25.27
2023-03-15T20:47:41.407Z,17.13
2023-03-15T20:50:10.853Z,18.00
2023-03-15T20:55:07.343Z,16.15
2023-03-15T20:57:35.908Z,30.02
2023-03-15T21:00:11.804Z,16.40
2023-03-15T21:02:39.979Z,16.08
2023-03-15T21:05:09.583Z,26.42
2023-03-15T21:07:37.414Z,18.35
2023-03-15T21:10:05.762Z,17.70
2023-03-15T21:12:33.052Z,18.33
2023-03-15T21:15:01.317Z,22.85
2023-03-15T21:17:28.634Z,19.25
2023-03-15T21:19:56.512Z,22.00
2023-03-15T21:22:23.883Z,19.88
2023-03-15T21:24:55.935Z,18.50
2023-03-15T21:27:26.074Z,17.67
2023-03-15T21:29:54.043Z,16.23
2023-03-15T21:32:21.338Z,16.85
2023-03-15T21:34:48.563Z,15.00
2023-03-15T21:37:15.985Z,19.77
2023-03-15T21:39:43.263Z,17.42
2023-03-15T21:42:10.525Z,15.35
2023-03-15T21:44:37.878Z,18.92
2023-03-15T21:47:05.777Z,20.95
2023-03-15T21:49:33.110Z,17.73
2023-03-15T21:52:01.924Z,19.15
2023-03-15T21:54:29.205Z,15.65
2023-03-15T21:56:56.559Z,17.35
2023-03-15T21:59:27.257Z,15.93
2023-03-15T22:01:57.468Z,18.20
2023-03-15T22:04:25.557Z,23.30
2023-03-15T22:06:53.258Z,24.95
2023-03-15T22:09:22.704Z,22.65
2023-03-15T22:14:17.340Z,24.15
2023-03-15T22:16:44.637Z,24.63
2023-03-15T22:19:11.960Z,23.42
2023-03-15T22:21:39.144Z,16.42
2023-03-15T22:24:07.431Z,22.38
2023-03-15T22:26:35.143Z,17.20
2023-03-15T22:29:02.523Z,20.73
2023-03-15T22:31:32.890Z,25.55
2023-03-15T22:34:01.147Z,17.95
2023-03-15T22:36:29.290Z,21.92
2023-03-15T22:38:57.796Z,16.95
2023-03-15T22:41:25.051Z,27.23
2023-03-15T22:43:52.917Z,21.65
2023-03-15T22:46:20.711Z,25.55
2023-03-15T22:48:47.984Z,16.17
2023-03-15T22:51:16.282Z,22.27
2023-03-15T22:53:44.061Z,21.60
2023-03-15T22:56:11.924Z,19.92
2023-03-15T22:58:39.190Z,28.35
2023-03-15T23:01:06.588Z,18.27
2023-03-15T23:03:34.008Z,22.13
2023-03-15T23:06:01.233Z,21.42
2023-03-15T23:08:28.686Z,22.70
2023-03-15T23:10:59.857Z,31.30
2023-03-15T23:13:27.064Z,35.53
2023-03-15T23:15:54.417Z,29.23
2023-03-15T23:18:22.043Z,27.02
2023-03-15T23:20:49.459Z,29.50
2023-03-15T23:23:17.028Z,24.92
2023-03-15T23:25:45.429Z,27.45
2023-03-15T23:28:16.458Z,22.70
2023-03-15T23:30:45.075Z,25.50
2023-03-15T23:33:12.897Z,25.83
2023-03-15T23:35:41.341Z,25.63
2023-03-15T23:38:08.913Z,23.03
2023-03-15T23:40:36.179Z,23.75
2023-03-15T23:43:03.774Z,27.88
2023-03-15T23:45:31.157Z,25.83
2023-03-15T23:47:58.542Z,30.70
2023-03-15T23:50:26.974Z,21.60
2023-03-15T23:52:57.574Z,25.70
2023-03-15T23:55:24.761Z,18.40
2023-03-15T23:57:51.978Z,22.25
